CheckWX is a tool to help pilots better visualize weather data.  It is not intended as a substitute for an official pre-flight weather briefing.

08:59:24 UTC

KBCK METAR
Black River Falls Area Airport
Black River Falls, Wisconsin, USA
Current

24 mins ago

KBCK 220835Z AUTO 00000KT 10SM SCT120 M17/M20 A3040 RMK AO2 T11711199
Observed
Feb-22 @ 08:35 UTC
Visibility
10 SM
Flight Rules
VFR
Cloud Levels
  • Scattered at 12,000' AGL
Temperature
-17°C / 1°F
Dewpoint
-20°C / -4°F
Humidity
78%
Altimeter
30.4" Hg
Pressure
1029.41 hPa
Previous

44 mins ago

KBCK 220815Z AUTO 00000KT 10SM CLR M17/M20 A3040 RMK AO2 T11751201
Observed
Feb-22 @ 08:15 UTC
Visibility
10 SM
Flight Rules
VFR
Cloud Levels
  • Clear skies
Temperature
-18°C / -0°F
Dewpoint
-20°C / -4°F
Humidity
84%
Altimeter
30.4" Hg
Pressure
1029.41 hPa
Previous

1 hour ago

KBCK 220755Z AUTO 00000KT 10SM CLR M18/M20 A3040 RMK AO2 T11781205
Observed
Feb-22 @ 07:55 UTC
Visibility
10 SM
Flight Rules
VFR
Cloud Levels
  • Clear skies
Temperature
-18°C / -0°F
Dewpoint
-21°C / -6°F
Humidity
78%
Altimeter
30.4" Hg
Pressure
1029.41 hPa